createdAt,value
2017-08-03T00:01:02.519Z,19.60
2017-08-03T00:03:31.618Z,19.60
2017-08-03T00:06:00.501Z,19.60
2017-08-03T00:08:29.394Z,19.60
2017-08-03T00:10:58.283Z,19.60
2017-08-03T00:13:27.788Z,19.50
2017-08-03T00:15:56.655Z,19.50
2017-08-03T00:18:27.051Z,19.50
2017-08-03T00:20:55.895Z,19.50
2017-08-03T00:23:24.947Z,19.50
2017-08-03T00:25:53.674Z,19.50
2017-08-03T00:28:22.566Z,19.50
2017-08-03T00:30:51.249Z,19.50
2017-08-03T00:33:20.143Z,19.50
2017-08-03T00:35:49.034Z,19.40
2017-08-03T00:38:17.719Z,19.40
2017-08-03T00:40:46.612Z,19.40
2017-08-03T00:43:15.466Z,19.40
2017-08-03T00:45:44.189Z,19.40
2017-08-03T00:48:12.870Z,19.40
2017-08-03T00:50:41.555Z,19.40
2017-08-03T00:53:10.242Z,19.40
2017-08-03T00:55:38.926Z,19.40
2017-08-03T00:58:07.614Z,19.30
2017-08-03T01:00:36.505Z,19.30
2017-08-03T01:03:05.396Z,19.40
2017-08-03T01:05:34.286Z,19.40
2017-08-03T01:08:02.973Z,19.40
2017-08-03T01:10:31.655Z,19.40
2017-08-03T01:13:00.345Z,19.40
2017-08-03T01:15:29.641Z,19.40
2017-08-03T01:17:58.532Z,19.40
2017-08-03T01:20:27.428Z,19.40
2017-08-03T01:22:56.317Z,19.40
2017-08-03T01:25:25.413Z,19.40
2017-08-03T01:27:54.095Z,19.30
2017-08-03T01:30:22.788Z,19.30
2017-08-03T01:32:51.671Z,19.30
2017-08-03T01:35:20.562Z,19.30
2017-08-03T01:37:49.452Z,19.30
2017-08-03T01:40:18.345Z,19.30
2017-08-03T01:42:47.029Z,19.30
2017-08-03T01:45:15.714Z,19.30
2017-08-03T01:47:44.399Z,19.30
2017-08-03T01:50:13.291Z,19.30
2017-08-03T01:52:42.189Z,19.30
2017-08-03T01:55:11.277Z,19.30
2017-08-03T01:57:40.169Z,19.30
2017-08-03T02:00:08.855Z,19.30
2017-08-03T02:02:38.565Z,19.20
2017-08-03T02:05:07.454Z,19.20
2017-08-03T02:07:36.346Z,19.20
2017-08-03T02:10:05.241Z,19.20
2017-08-03T02:12:34.130Z,19.20
2017-08-03T02:15:02.817Z,19.20
2017-08-03T02:17:31.707Z,19.20
2017-08-03T02:20:00.386Z,19.20
2017-08-03T02:22:29.281Z,19.20
2017-08-03T02:24:58.137Z,19.10
2017-08-03T02:27:28.078Z,19.10
2017-08-03T02:29:56.768Z,19.10
2017-08-03T02:32:25.659Z,19.10
2017-08-03T02:34:54.344Z,19.10
2017-08-03T02:37:23.032Z,19.10
2017-08-03T02:39:51.883Z,19.10
2017-08-03T02:42:20.816Z,19.10
2017-08-03T02:44:49.701Z,19.10
2017-08-03T02:47:18.389Z,19.10
2017-08-03T02:49:47.278Z,19.10
2017-08-03T02:52:16.169Z,19.10
2017-08-03T02:54:44.853Z,19.00
2017-08-03T02:57:13.540Z,19.00
2017-08-03T02:59:42.226Z,19.00
2017-08-03T03:02:11.122Z,19.00
2017-08-03T03:04:39.806Z,19.00
2017-08-03T03:07:08.488Z,19.00
2017-08-03T03:09:37.182Z,19.00
2017-08-03T03:12:05.862Z,19.00
2017-08-03T03:14:34.550Z,19.00
2017-08-03T03:17:03.230Z,19.00
2017-08-03T03:19:33.147Z,19.00
2017-08-03T03:22:02.046Z,19.00
2017-08-03T03:24:30.728Z,19.00
2017-08-03T03:26:59.840Z,19.00
2017-08-03T03:29:29.527Z,19.00
2017-08-03T03:31:58.213Z,19.00
2017-08-03T03:34:26.906Z,19.00
2017-08-03T03:36:55.796Z,18.90
2017-08-03T03:39:24.474Z,18.90
2017-08-03T03:41:53.370Z,19.00
2017-08-03T03:44:22.256Z,18.90
2017-08-03T03:46:50.944Z,18.90
2017-08-03T03:49:19.626Z,18.90
2017-08-03T03:51:48.316Z,18.90
2017-08-03T03:54:17.204Z,18.90
2017-08-03T03:56:45.888Z,18.90
2017-08-03T03:59:14.989Z,18.90
2017-08-03T04:01:43.671Z,18.90
2017-08-03T04:04:12.354Z,18.80
2017-08-03T04:06:41.251Z,18.80
2017-08-03T04:09:10.345Z,18.80
2017-08-03T04:11:39.242Z,18.80
2017-08-03T04:14:08.943Z,18.80
2017-08-03T04:16:37.629Z,18.70
2017-08-03T04:19:06.312Z,18.70
2017-08-03T04:21:34.999Z,18.80
2017-08-03T04:24:03.895Z,18.70
2017-08-03T04:26:32.578Z,18.70
2017-08-03T04:29:02.290Z,18.70
2017-08-03T04:31:31.176Z,18.70
2017-08-03T04:33:59.865Z,18.70
2017-08-03T04:36:28.547Z,18.70
2017-08-03T04:38:57.238Z,18.70
2017-08-03T04:41:25.921Z,18.70
2017-08-03T04:43:54.604Z,18.70
2017-08-03T04:46:23.495Z,18.70
2017-08-03T04:48:52.181Z,18.70
2017-08-03T04:51:20.865Z,18.70
2017-08-03T04:53:49.551Z,18.70
2017-08-03T04:56:19.876Z,18.70
2017-08-03T04:58:49.182Z,18.70
2017-08-03T05:01:18.070Z,18.60
2017-08-03T05:03:47.980Z,18.60
2017-08-03T05:06:16.668Z,18.60
2017-08-03T05:08:45.557Z,18.60
2017-08-03T05:11:14.455Z,18.60
2017-08-03T05:13:43.132Z,18.60
2017-08-03T05:16:11.826Z,18.60
2017-08-03T05:18:40.512Z,18.60
2017-08-03T05:21:09.398Z,18.60
2017-08-03T05:23:38.079Z,18.60
2017-08-03T05:26:07.589Z,18.60
2017-08-03T05:28:36.274Z,18.60
2017-08-03T05:31:05.982Z,18.60
2017-08-03T05:33:34.680Z,18.60
2017-08-03T05:36:03.564Z,18.60
2017-08-03T05:38:32.244Z,18.60
2017-08-03T05:41:00.919Z,18.60
2017-08-03T05:43:29.819Z,18.60
2017-08-03T05:45:58.505Z,18.60
2017-08-03T05:48:27.397Z,18.50
2017-08-03T05:50:56.263Z,18.50
2017-08-03T05:53:25.176Z,18.50
2017-08-03T05:55:54.069Z,18.50
2017-08-03T05:58:22.960Z,18.50
2017-08-03T06:00:51.647Z,18.50
2017-08-03T06:03:20.533Z,18.50
2017-08-03T06:05:49.428Z,18.50
2017-08-03T06:08:18.111Z,18.50
2017-08-03T06:10:47.000Z,18.50
2017-08-03T06:13:15.685Z,18.50
2017-08-03T06:15:44.769Z,18.50
2017-08-03T06:18:13.672Z,18.50
2017-08-03T06:20:42.977Z,18.50
2017-08-03T06:23:11.864Z,18.50
2017-08-03T06:25:41.340Z,18.50
2017-08-03T06:28:10.060Z,18.50
2017-08-03T06:30:38.946Z,18.50
2017-08-03T06:33:08.655Z,18.50
2017-08-03T06:35:37.341Z,18.50
2017-08-03T06:38:06.031Z,18.50
2017-08-03T06:40:34.918Z,18.50
2017-08-03T06:43:03.813Z,18.50
2017-08-03T06:45:32.710Z,18.50
2017-08-03T06:48:01.598Z,18.40
2017-08-03T06:50:30.485Z,18.50
2017-08-03T06:52:59.165Z,18.50
2017-08-03T06:55:28.058Z,18.40
2017-08-03T06:57:56.945Z,18.40
2017-08-03T07:00:26.659Z,18.50
2017-08-03T07:02:55.344Z,18.50
2017-08-03T07:05:24.232Z,18.50
2017-08-03T07:07:53.327Z,18.50
2017-08-03T07:10:22.021Z,18.50
2017-08-03T07:12:50.906Z,18.50
2017-08-03T07:15:20.613Z,18.50
2017-08-03T07:17:49.709Z,18.50
2017-08-03T07:20:18.602Z,18.50
2017-08-03T07:22:47.489Z,18.50
2017-08-03T07:25:16.379Z,18.50
2017-08-03T07:27:45.167Z,18.50
2017-08-03T07:30:14.065Z,18.50
2017-08-03T07:32:42.744Z,18.50
2017-08-03T07:35:11.636Z,18.50
2017-08-03T07:37:40.518Z,18.50
2017-08-03T07:40:09.418Z,18.50
2017-08-03T07:42:38.317Z,18.50
2017-08-03T07:45:06.991Z,18.50
2017-08-03T07:47:35.885Z,18.50
2017-08-03T07:50:04.742Z,18.50
2017-08-03T07:52:33.465Z,18.50
2017-08-03T07:55:02.349Z,18.50
2017-08-03T07:57:31.223Z,18.50
2017-08-03T07:59:59.935Z,18.50
2017-08-03T08:02:28.814Z,18.50
2017-08-03T08:04:57.505Z,18.50
2017-08-03T08:07:26.194Z,18.50
2017-08-03T08:09:54.871Z,18.60
2017-08-03T08:12:23.768Z,18.60
2017-08-03T08:14:52.657Z,18.60
2017-08-03T08:17:21.550Z,18.60
2017-08-03T08:19:50.437Z,18.60
2017-08-03T08:22:19.326Z,18.70
2017-08-03T08:24:48.215Z,18.70
2017-08-03T08:27:17.111Z,18.80
2017-08-03T08:29:46.000Z,18.90
2017-08-03T08:32:14.888Z,18.90
2017-08-03T08:34:43.779Z,18.90
2017-08-03T08:37:14.107Z,19.00
2017-08-03T08:39:42.992Z,19.00
2017-08-03T08:42:11.684Z,19.00
2017-08-03T08:44:40.749Z,18.90
2017-08-03T08:47:09.462Z,18.90
2017-08-03T08:49:38.149Z,19.00
2017-08-03T08:52:06.836Z,19.00
2017-08-03T08:54:35.723Z,19.00
2017-08-03T08:57:04.616Z,19.00
2017-08-03T08:59:33.297Z,19.00
2017-08-03T09:02:02.159Z,19.10
2017-08-03T09:04:30.887Z,19.10
2017-08-03T09:06:59.770Z,19.20
2017-08-03T09:09:28.628Z,19.30
2017-08-03T09:11:57.341Z,19.40
2017-08-03T09:14:26.230Z,19.50
2017-08-03T09:16:54.926Z,19.50
2017-08-03T09:19:23.604Z,19.50
2017-08-03T09:21:52.492Z,19.50
2017-08-03T09:24:21.177Z,19.50
2017-08-03T09:26:50.278Z,19.60
2017-08-03T09:29:18.968Z,19.70
2017-08-03T09:31:47.649Z,19.70
2017-08-03T09:34:16.752Z,19.70
2017-08-03T09:36:45.631Z,19.70
2017-08-03T09:39:14.520Z,19.70
2017-08-03T09:41:43.211Z,19.70
2017-08-03T09:44:11.977Z,19.70
2017-08-03T09:46:41.005Z,19.70
2017-08-03T09:49:09.884Z,19.80
2017-08-03T09:51:38.567Z,19.80
2017-08-03T09:54:08.481Z,19.80
2017-08-03T09:56:37.170Z,19.80
2017-08-03T09:59:06.060Z,19.90
2017-08-03T10:01:34.911Z,19.80
2017-08-03T10:04:03.844Z,19.80
2017-08-03T10:06:32.732Z,19.70
2017-08-03T10:09:01.425Z,19.70
2017-08-03T10:11:30.507Z,19.70
2017-08-03T10:13:59.428Z,19.70
2017-08-03T10:16:28.296Z,19.70
2017-08-03T10:18:57.180Z,19.70
2017-08-03T10:21:26.071Z,19.70
2017-08-03T10:23:54.963Z,19.70
2017-08-03T10:26:23.864Z,19.70
2017-08-03T10:28:52.743Z,19.70
2017-08-03T10:31:21.642Z,19.70
2017-08-03T10:33:50.526Z,19.80
2017-08-03T10:36:19.422Z,19.80
2017-08-03T10:38:48.304Z,19.80
2017-08-03T10:41:18.022Z,20.00
2017-08-03T10:43:47.726Z,19.90
2017-08-03T10:46:16.410Z,20.00
2017-08-03T10:48:45.096Z,20.10
2017-08-03T10:51:13.784Z,20.10
2017-08-03T10:53:42.465Z,20.20
2017-08-03T10:56:11.154Z,20.20
2017-08-03T10:58:40.044Z,20.20
2017-08-03T11:01:08.933Z,20.20
2017-08-03T11:03:37.822Z,20.30
2017-08-03T11:06:07.334Z,20.40
2017-08-03T11:08:36.226Z,20.40
2017-08-03T11:11:05.110Z,20.40
2017-08-03T11:13:34.417Z,20.40
2017-08-03T11:16:04.128Z,20.40
2017-08-03T11:18:33.012Z,20.40
2017-08-03T11:21:01.697Z,20.40
2017-08-03T11:23:30.588Z,20.30
2017-08-03T11:25:59.270Z,20.30
2017-08-03T11:28:28.162Z,20.20
2017-08-03T11:30:56.854Z,20.20
2017-08-03T11:33:25.745Z,20.10
2017-08-03T11:35:54.628Z,20.10
2017-08-03T11:38:23.523Z,20.10
2017-08-03T11:40:53.232Z,20.10
2017-08-03T11:43:22.918Z,20.10
2017-08-03T11:45:51.631Z,20.10
2017-08-03T11:48:20.451Z,20.10
2017-08-03T11:50:49.614Z,20.10
2017-08-03T11:53:19.322Z,20.10
2017-08-03T11:55:48.215Z,20.10
2017-08-03T11:58:17.715Z,20.10
2017-08-03T12:00:46.811Z,20.10
2017-08-03T12:03:15.734Z,20.10
2017-08-03T12:05:44.823Z,20.10
2017-08-03T12:08:13.688Z,20.10
2017-08-03T12:10:43.401Z,20.10
2017-08-03T12:13:12.085Z,20.00
2017-08-03T12:15:41.187Z,20.10
2017-08-03T12:18:10.082Z,20.00
2017-08-03T12:20:38.965Z,20.00
2017-08-03T12:23:07.855Z,20.00
2017-08-03T12:25:36.908Z,20.00
2017-08-03T12:28:05.630Z,20.00
2017-08-03T12:30:34.718Z,20.00
2017-08-03T12:33:03.621Z,20.00
2017-08-03T12:35:32.714Z,20.00
2017-08-03T12:38:01.613Z,20.00
2017-08-03T12:40:30.292Z,20.00
2017-08-03T12:42:59.178Z,20.00
2017-08-03T12:45:28.023Z,19.90
2017-08-03T12:47:56.759Z,19.90
2017-08-03T12:50:25.461Z,19.90
2017-08-03T12:52:54.332Z,19.90
2017-08-03T12:55:23.770Z,19.90
2017-08-03T12:57:52.527Z,19.90
2017-08-03T13:00:21.414Z,19.80
2017-08-03T13:02:50.762Z,19.80
2017-08-03T13:05:20.627Z,19.80
2017-08-03T13:07:49.522Z,19.80
2017-08-03T13:10:18.412Z,19.80
2017-08-03T13:12:47.096Z,19.80
2017-08-03T13:15:17.012Z,19.80
2017-08-03T13:17:45.695Z,19.80
2017-08-03T13:20:14.585Z,19.80
2017-08-03T13:22:43.476Z,19.80
2017-08-03T13:25:12.161Z,19.80
2017-08-03T13:27:41.054Z,19.90
2017-08-03T13:30:09.946Z,19.80
2017-08-03T13:32:38.633Z,19.80
2017-08-03T13:35:07.323Z,19.80
2017-08-03T13:37:36.205Z,19.80
2017-08-03T13:40:06.123Z,19.80
2017-08-03T13:42:34.804Z,19.80
2017-08-03T13:45:03.699Z,19.80
2017-08-03T13:47:32.381Z,19.80
2017-08-03T13:50:01.069Z,19.80
2017-08-03T13:52:30.366Z,19.80
2017-08-03T13:54:59.239Z,19.90
2017-08-03T13:57:27.949Z,19.90
2017-08-03T13:59:56.628Z,19.90
2017-08-03T14:02:25.524Z,19.90
2017-08-03T14:04:54.411Z,19.90
2017-08-03T14:07:23.302Z,19.90
2017-08-03T14:09:51.991Z,19.90
2017-08-03T14:12:20.675Z,19.90
2017-08-03T14:14:49.565Z,19.90
2017-08-03T14:17:18.457Z,19.90
2017-08-03T14:22:22.995Z,19.90
2017-08-03T14:24:51.884Z,19.90
2017-08-03T14:27:21.390Z,19.90
2017-08-03T14:29:50.076Z,19.90
2017-08-03T14:32:18.762Z,19.90
2017-08-03T14:34:47.452Z,19.90
2017-08-03T14:37:23.096Z,19.90
2017-08-03T14:39:51.992Z,19.90
2017-08-03T14:42:20.655Z,19.90
2017-08-03T14:44:49.359Z,19.90
2017-08-03T14:47:18.046Z,19.90
2017-08-03T14:49:46.728Z,19.90
2017-08-03T14:52:15.600Z,19.90
2017-08-03T14:54:44.500Z,19.90
2017-08-03T14:57:13.202Z,19.90
2017-08-03T14:59:41.887Z,19.90
2017-08-03T15:02:10.775Z,19.90
2017-08-03T15:04:39.664Z,19.90
2017-08-03T15:07:08.352Z,19.90
2017-08-03T15:09:37.442Z,19.80
2017-08-03T15:12:06.339Z,19.80
2017-08-03T15:14:35.236Z,19.80
2017-08-03T15:20:07.424Z,19.80
2017-08-03T15:22:38.953Z,19.80
2017-08-03T15:25:07.653Z,19.80
2017-08-03T15:27:36.343Z,19.80
2017-08-03T15:30:05.232Z,19.80
2017-08-03T15:32:33.913Z,19.80
2017-08-03T15:35:03.012Z,19.90
2017-08-03T15:37:31.697Z,19.90
2017-08-03T15:40:00.380Z,20.00
2017-08-03T15:42:29.680Z,20.00
2017-08-03T15:44:58.579Z,20.00
2017-08-03T15:47:28.468Z,20.00
2017-08-03T15:49:57.388Z,20.00
2017-08-03T15:52:26.062Z,20.10
2017-08-03T15:54:55.775Z,20.10
2017-08-03T15:57:26.096Z,20.10
2017-08-03T15:59:54.783Z,20.10
2017-08-03T16:02:23.672Z,20.10
2017-08-03T16:04:53.181Z,20.10
2017-08-03T16:07:22.893Z,20.10
2017-08-03T16:09:51.747Z,20.30
2017-08-03T16:12:20.669Z,20.40
2017-08-03T16:14:49.562Z,20.50
2017-08-03T16:17:18.448Z,20.60
2017-08-03T16:19:47.349Z,20.70
2017-08-03T16:22:16.232Z,20.70
2017-08-03T16:24:45.125Z,20.70
2017-08-03T16:27:13.805Z,20.70
2017-08-03T16:29:42.506Z,20.70
2017-08-03T16:32:11.387Z,20.80
2017-08-03T16:34:40.068Z,20.80
2017-08-03T16:37:08.755Z,20.80
2017-08-03T16:39:37.423Z,20.80
2017-08-03T16:42:06.425Z,20.80
2017-08-03T16:44:35.220Z,20.80
2017-08-03T16:47:04.115Z,20.80
2017-08-03T16:49:32.800Z,20.80
2017-08-03T16:52:01.687Z,20.70
2017-08-03T16:54:30.585Z,20.80
2017-08-03T16:56:59.479Z,20.70
2017-08-03T16:59:28.371Z,20.70
2017-08-03T17:01:58.003Z,20.70
2017-08-03T17:04:26.765Z,20.70
2017-08-03T17:06:55.647Z,20.70
2017-08-03T17:09:24.338Z,20.70
2017-08-03T17:11:53.224Z,20.70
2017-08-03T17:14:22.113Z,20.70
2017-08-03T17:16:51.003Z,20.70
2017-08-03T17:19:19.690Z,20.70
2017-08-03T17:21:50.013Z,20.70
2017-08-03T17:24:18.906Z,20.80
2017-08-03T17:26:48.613Z,20.80
2017-08-03T17:29:17.505Z,20.70
2017-08-03T17:31:47.222Z,20.70
2017-08-03T17:34:16.105Z,20.70
2017-08-03T17:36:45.002Z,20.60
2017-08-03T17:39:14.091Z,20.60
2017-08-03T17:41:43.803Z,20.60
2017-08-03T17:44:12.695Z,20.60
2017-08-03T17:46:41.581Z,20.60
2017-08-03T17:49:10.481Z,20.50
2017-08-03T17:51:40.590Z,20.50
2017-08-03T17:54:09.481Z,20.50
2017-08-03T17:56:38.372Z,20.50
2017-08-03T17:59:07.474Z,20.50
2017-08-03T18:01:36.360Z,20.50
2017-08-03T18:04:05.257Z,20.50
2017-08-03T18:06:34.144Z,20.50
2017-08-03T18:09:03.038Z,20.50
2017-08-03T18:11:31.920Z,20.50
2017-08-03T18:14:00.815Z,20.40
2017-08-03T18:16:30.497Z,20.40
2017-08-03T18:18:59.568Z,20.40
2017-08-03T18:21:28.510Z,20.30
2017-08-03T18:23:57.399Z,20.30
2017-08-03T18:26:26.289Z,20.30
2017-08-03T18:28:54.977Z,20.30
2017-08-03T18:31:23.866Z,20.30
2017-08-03T18:33:52.769Z,20.30
2017-08-03T18:36:21.652Z,20.20
2017-08-03T18:38:50.547Z,20.20
2017-08-03T18:41:19.837Z,20.10
2017-08-03T18:43:48.738Z,20.10
2017-08-03T18:46:17.617Z,20.10
2017-08-03T18:48:46.506Z,20.10
2017-08-03T18:51:15.401Z,20.10
2017-08-03T18:53:44.291Z,20.10
2017-08-03T18:56:13.184Z,20.00
2017-08-03T18:58:42.074Z,20.00
2017-08-03T19:01:10.972Z,20.00
2017-08-03T19:03:39.997Z,20.00
2017-08-03T19:06:08.742Z,20.00
2017-08-03T19:08:37.639Z,20.00
2017-08-03T19:11:06.732Z,19.90
2017-08-03T19:13:35.622Z,19.90
2017-08-03T19:16:04.514Z,19.90
2017-08-03T19:18:33.404Z,19.90
2017-08-03T19:21:02.330Z,19.90
2017-08-03T19:23:31.182Z,19.90
2017-08-03T19:26:01.713Z,19.80
2017-08-03T19:28:30.759Z,19.80
2017-08-03T19:30:59.699Z,19.80
2017-08-03T19:33:28.772Z,19.70
2017-08-03T19:35:57.475Z,19.80
2017-08-03T19:38:26.367Z,19.70
2017-08-03T19:40:55.264Z,19.70
2017-08-03T19:43:24.969Z,19.70
2017-08-03T19:45:53.862Z,19.70
2017-08-03T19:48:22.763Z,19.70
2017-08-03T19:50:52.466Z,19.20
2017-08-03T19:53:21.353Z,19.10
2017-08-03T19:55:50.037Z,18.90
2017-08-03T19:58:18.725Z,18.80
2017-08-03T20:00:47.611Z,18.90
2017-08-03T20:03:16.504Z,19.00
2017-08-03T20:05:45.573Z,19.20
2017-08-03T20:08:14.823Z,19.30
2017-08-03T20:10:44.815Z,19.30
2017-08-03T20:13:18.821Z,19.40
2017-08-03T20:15:48.549Z,19.50
2017-08-03T20:18:17.420Z,19.40
2017-08-03T20:20:46.318Z,19.40
2017-08-03T20:23:15.006Z,19.40
2017-08-03T20:25:44.919Z,19.40
2017-08-03T20:28:13.803Z,19.40
2017-08-03T20:30:42.696Z,19.40
2017-08-03T20:33:11.585Z,19.40
2017-08-03T20:35:40.484Z,19.40
2017-08-03T20:38:09.164Z,19.40
2017-08-03T20:40:37.851Z,19.40
2017-08-03T20:43:06.738Z,19.40
2017-08-03T20:45:36.662Z,19.30
2017-08-03T20:48:05.542Z,19.30
2017-08-03T20:50:34.243Z,19.30
2017-08-03T20:53:03.118Z,19.30
2017-08-03T20:55:32.626Z,19.30
2017-08-03T20:58:01.517Z,19.30
2017-08-03T21:00:30.405Z,19.30
2017-08-03T21:02:59.095Z,19.30
2017-08-03T21:05:27.776Z,19.30
2017-08-03T21:07:56.632Z,19.20
2017-08-03T21:10:25.364Z,19.30
2017-08-03T21:12:54.250Z,19.20
2017-08-03T21:15:23.131Z,19.20
2017-08-03T21:17:51.820Z,19.20
2017-08-03T21:20:20.512Z,19.20
2017-08-03T21:22:49.201Z,19.20
2017-08-03T21:25:18.079Z,19.20
2017-08-03T21:27:46.769Z,19.20
2017-08-03T21:30:15.660Z,19.20
2017-08-03T21:32:44.551Z,19.20
2017-08-03T21:35:13.231Z,19.20
2017-08-03T21:37:42.127Z,19.20
2017-08-03T21:40:11.014Z,19.20
2017-08-03T21:42:39.711Z,19.20
2017-08-03T21:45:08.591Z,19.20
2017-08-03T21:47:37.282Z,19.10
2017-08-03T21:50:05.962Z,19.10
2017-08-03T21:52:34.877Z,19.10
2017-08-03T21:55:03.915Z,19.10
2017-08-03T21:57:33.452Z,19.10
2017-08-03T22:00:02.173Z,19.00
2017-08-03T22:02:32.054Z,19.00
2017-08-03T22:05:00.947Z,19.00
2017-08-03T22:07:30.655Z,19.00
2017-08-03T22:09:59.546Z,19.00
2017-08-03T22:12:28.230Z,19.00
2017-08-03T22:14:57.119Z,19.00
2017-08-03T22:17:26.828Z,19.00
2017-08-03T22:19:55.695Z,18.90
2017-08-03T22:22:24.405Z,19.00
2017-08-03T22:24:53.294Z,18.90
2017-08-03T22:27:22.122Z,18.90
2017-08-03T22:29:51.692Z,18.90
2017-08-03T22:32:20.533Z,18.90
2017-08-03T22:34:49.268Z,18.90
2017-08-03T22:37:18.975Z,18.90
2017-08-03T22:39:47.867Z,18.90
2017-08-03T22:42:16.553Z,18.90
2017-08-03T22:44:45.242Z,18.80
2017-08-03T22:47:13.925Z,18.80
2017-08-03T22:49:42.817Z,18.80
2017-08-03T22:52:11.706Z,18.80
2017-08-03T22:54:40.599Z,18.80
2017-08-03T22:57:09.490Z,18.80
2017-08-03T22:59:38.377Z,18.80
2017-08-03T23:02:07.062Z,18.80
2017-08-03T23:04:36.363Z,18.80
2017-08-03T23:07:05.870Z,18.70
2017-08-03T23:09:34.551Z,18.70
2017-08-03T23:12:03.444Z,18.70
2017-08-03T23:14:32.336Z,18.70
2017-08-03T23:17:01.021Z,18.70
2017-08-03T23:19:29.705Z,18.70
2017-08-03T23:21:58.401Z,18.70
2017-08-03T23:24:27.283Z,18.70
2017-08-03T23:26:56.174Z,18.70
2017-08-03T23:29:27.110Z,18.70
2017-08-03T23:31:56.822Z,18.70
2017-08-03T23:34:25.510Z,18.70
2017-08-03T23:36:54.195Z,18.70
2017-08-03T23:39:22.877Z,18.70
2017-08-03T23:41:51.563Z,18.70
2017-08-03T23:44:20.251Z,18.70
2017-08-03T23:46:48.933Z,18.60
2017-08-03T23:49:17.620Z,18.60
2017-08-03T23:51:47.533Z,18.60
2017-08-03T23:54:16.219Z,18.60
2017-08-03T23:56:44.908Z,18.60
2017-08-03T23:59:13.594Z,18.60
